createdAt,value
2022-08-28T00:00:22.041Z,22.58
2022-08-28T00:01:25.103Z,18.08
2022-08-28T00:02:28.601Z,21.50
2022-08-28T00:03:32.272Z,16.33
2022-08-28T00:04:35.861Z,19.92
2022-08-28T00:05:40.042Z,17.48
2022-08-28T00:06:42.082Z,18.42
2022-08-28T00:07:47.788Z,18.88
2022-08-28T00:08:50.188Z,21.35
2022-08-28T00:09:53.210Z,21.38
2022-08-28T00:10:55.178Z,19.65
2022-08-28T00:11:58.205Z,18.98
2022-08-28T00:13:00.240Z,23.00
2022-08-28T00:14:04.670Z,28.10
2022-08-28T00:15:09.720Z,16.83
2022-08-28T00:16:18.069Z,23.08
2022-08-28T00:17:20.337Z,15.45
2022-08-28T00:18:25.632Z,21.20
2022-08-28T00:19:27.897Z,18.15
2022-08-28T00:20:31.719Z,26.27
2022-08-28T00:21:33.949Z,18.90
2022-08-28T00:22:38.243Z,20.52
2022-08-28T00:23:42.492Z,27.13
2022-08-28T00:24:46.018Z,22.63
2022-08-28T00:25:48.044Z,24.77
2022-08-28T00:27:08.453Z,24.45
2022-08-28T00:28:18.435Z,23.10
2022-08-28T00:29:27.446Z,16.42
2022-08-28T00:30:32.835Z,29.58
2022-08-28T00:31:38.552Z,19.30
2022-08-28T00:32:40.680Z,19.35
2022-08-28T00:33:46.765Z,20.80
2022-08-28T00:34:50.531Z,21.90
2022-08-28T00:35:54.584Z,22.73
2022-08-28T00:36:56.617Z,17.20
2022-08-28T00:38:00.152Z,18.42
2022-08-28T00:39:02.227Z,19.63
2022-08-28T00:40:05.897Z,23.80
2022-08-28T00:41:08.255Z,24.30
2022-08-28T00:42:11.970Z,17.67
2022-08-28T00:43:34.845Z,22.98
2022-08-28T00:44:36.880Z,27.10
2022-08-28T00:45:40.374Z,29.92
2022-08-28T00:46:44.945Z,20.98
2022-08-28T00:47:48.146Z,18.88
2022-08-28T00:48:51.534Z,22.77
2022-08-28T00:49:57.081Z,22.80
2022-08-28T00:51:17.743Z,25.58
2022-08-28T00:52:21.805Z,18.48
2022-08-28T00:53:27.099Z,24.10
2022-08-28T00:54:34.762Z,20.67
2022-08-28T00:55:37.832Z,23.63
2022-08-28T00:56:40.855Z,22.55
2022-08-28T00:57:49.209Z,19.88
2022-08-28T00:58:56.187Z,16.92
2022-08-28T00:59:59.315Z,24.50
2022-08-28T01:01:01.602Z,16.83
2022-08-28T01:02:07.124Z,17.02
2022-08-28T01:03:09.287Z,19.70
2022-08-28T01:04:17.083Z,23.40
2022-08-28T01:05:19.365Z,23.38
2022-08-28T01:06:23.067Z,21.98
2022-08-28T01:07:25.136Z,22.25
2022-08-28T01:08:31.273Z,17.02
2022-08-28T01:09:35.026Z,22.60
2022-08-28T01:10:38.626Z,23.40
2022-08-28T01:11:44.176Z,27.88
2022-08-28T01:12:49.917Z,20.80
2022-08-28T01:13:54.508Z,23.13
2022-08-28T01:15:00.072Z,21.52
2022-08-28T01:16:03.937Z,22.42
2022-08-28T01:17:09.347Z,23.77
2022-08-28T01:18:15.624Z,21.13
2022-08-28T01:19:27.589Z,20.58
2022-08-28T01:20:34.942Z,18.05
2022-08-28T01:21:47.157Z,28.30
2022-08-28T01:22:59.181Z,23.38
2022-08-28T01:24:06.871Z,19.58
2022-08-28T01:25:14.121Z,29.05
2022-08-28T01:26:16.173Z,23.02
2022-08-28T01:27:19.354Z,24.90
2022-08-28T01:28:21.411Z,18.15
2022-08-28T01:29:24.453Z,22.27
2022-08-28T01:30:26.931Z,21.55
2022-08-28T01:31:32.654Z,21.52
2022-08-28T01:32:38.080Z,22.73
2022-08-28T01:33:43.141Z,17.65
2022-08-28T01:34:45.139Z,22.90
2022-08-28T01:35:48.795Z,20.20
2022-08-28T01:36:51.060Z,20.98
2022-08-28T01:37:55.885Z,18.50
2022-08-28T01:39:01.525Z,23.85
2022-08-28T01:40:09.396Z,26.75
2022-08-28T01:41:12.737Z,17.75
2022-08-28T01:42:16.206Z,25.48
2022-08-28T01:43:21.524Z,25.15
2022-08-28T01:44:28.778Z,20.27
2022-08-28T01:45:31.403Z,18.65
2022-08-28T01:46:34.646Z,22.02
2022-08-28T01:47:36.812Z,21.83
2022-08-28T01:48:43.572Z,21.17
2022-08-28T01:49:45.676Z,27.65
2022-08-28T01:50:48.784Z,19.48
2022-08-28T01:51:51.277Z,21.77
2022-08-28T01:52:57.789Z,28.35
2022-08-28T01:54:00.564Z,19.48
2022-08-28T01:55:07.921Z,22.98
2022-08-28T01:56:13.151Z,20.63
2022-08-28T01:57:16.484Z,25.83
2022-08-28T01:58:19.921Z,23.02
2022-08-28T01:59:23.901Z,26.15
2022-08-28T02:00:27.677Z,26.83
2022-08-28T02:01:30.937Z,19.20
2022-08-28T02:02:33.073Z,26.27
2022-08-28T02:03:36.153Z,14.65
2022-08-28T02:04:39.315Z,17.23
2022-08-28T02:05:41.472Z,22.52
2022-08-28T02:06:44.779Z,20.67
2022-08-28T02:07:47.141Z,21.58
2022-08-28T02:08:54.718Z,19.02
2022-08-28T02:09:57.777Z,20.92
2022-08-28T02:11:01.249Z,17.85
2022-08-28T02:12:05.615Z,23.23
2022-08-28T02:13:08.780Z,22.13
2022-08-28T02:14:11.944Z,24.05
2022-08-28T02:15:14.034Z,15.05
2022-08-28T02:16:17.606Z,19.65
2022-08-28T02:17:19.761Z,25.55
2022-08-28T02:18:22.930Z,19.42
2022-08-28T02:19:25.028Z,21.65
2022-08-28T02:20:29.310Z,17.30
2022-08-28T02:21:31.490Z,24.00
2022-08-28T02:22:34.821Z,21.50
2022-08-28T02:23:37.924Z,25.40
2022-08-28T02:24:41.557Z,18.67
2022-08-28T02:25:43.651Z,20.00
2022-08-28T02:26:48.137Z,24.25
2022-08-28T02:27:50.346Z,26.83
2022-08-28T02:28:53.426Z,24.73
2022-08-28T02:29:55.665Z,23.67
2022-08-28T02:30:59.726Z,19.58
2022-08-28T02:32:01.959Z,23.02
2022-08-28T02:33:05.453Z,17.15
2022-08-28T02:34:07.553Z,22.55
2022-08-28T02:35:12.305Z,20.98
2022-08-28T02:36:15.578Z,24.25
2022-08-28T02:37:18.919Z,18.63
2022-08-28T02:38:22.526Z,21.33
2022-08-28T02:39:25.629Z,24.27
2022-08-28T02:40:28.293Z,22.15
2022-08-28T02:41:31.468Z,16.83
2022-08-28T02:42:34.984Z,24.00
2022-08-28T02:43:38.234Z,29.08
2022-08-28T02:44:40.339Z,20.52
2022-08-28T02:45:43.512Z,21.70
2022-08-28T02:46:45.601Z,25.58
2022-08-28T02:47:49.072Z,21.77
2022-08-28T02:48:51.153Z,24.50
2022-08-28T02:49:54.315Z,27.48
2022-08-28T02:50:59.063Z,17.30
2022-08-28T02:52:02.087Z,22.67
2022-08-28T02:53:04.177Z,16.55
2022-08-28T02:54:07.330Z,21.58
2022-08-28T02:55:12.485Z,18.30
2022-08-28T02:56:15.872Z,20.23
2022-08-28T02:57:17.997Z,23.65
2022-08-28T02:58:22.791Z,23.25
2022-08-28T02:59:26.120Z,21.13
2022-08-28T03:00:28.281Z,24.02
2022-08-28T03:01:31.884Z,19.77
2022-08-28T03:02:34.198Z,19.17
2022-08-28T03:03:37.450Z,21.70
2022-08-28T03:04:43.116Z,20.25
2022-08-28T03:05:46.235Z,18.70
2022-08-28T03:06:49.881Z,25.65
2022-08-28T03:07:53.540Z,23.52
2022-08-28T03:08:56.968Z,23.00
2022-08-28T03:09:59.045Z,15.65
2022-08-28T03:11:02.319Z,18.40
2022-08-28T03:12:05.575Z,18.65
2022-08-28T03:13:08.692Z,15.80
2022-08-28T03:14:12.203Z,22.60
2022-08-28T03:15:15.383Z,21.70
2022-08-28T03:16:18.095Z,23.63
2022-08-28T03:17:22.422Z,16.42
2022-08-28T03:18:25.546Z,23.25
2022-08-28T03:19:29.174Z,20.95
2022-08-28T03:20:32.296Z,21.38
2022-08-28T03:21:34.345Z,19.85
2022-08-28T03:22:55.333Z,20.15
2022-08-28T03:23:58.515Z,20.58
2022-08-28T03:25:00.628Z,18.08
2022-08-28T03:26:06.056Z,17.58
2022-08-28T03:27:08.980Z,22.92
2022-08-28T03:28:12.355Z,24.77
2022-08-28T03:29:17.174Z,18.30
2022-08-28T03:30:20.727Z,24.17
2022-08-28T03:31:26.769Z,23.20
2022-08-28T03:32:29.458Z,18.88
2022-08-28T03:33:33.786Z,24.33
2022-08-28T03:34:36.011Z,16.48
2022-08-28T03:35:39.176Z,22.55
2022-08-28T03:36:42.266Z,18.55
2022-08-28T03:37:44.531Z,24.50
2022-08-28T03:38:47.618Z,23.23
2022-08-28T03:39:49.973Z,16.90
2022-08-28T03:40:53.532Z,20.90
2022-08-28T03:41:55.754Z,20.90
2022-08-28T03:42:59.502Z,18.42
2022-08-28T03:44:02.189Z,20.40
2022-08-28T03:45:09.637Z,17.05
2022-08-28T03:46:16.398Z,20.58
2022-08-28T03:47:19.524Z,20.98
2022-08-28T03:48:24.406Z,23.45
2022-08-28T03:49:27.465Z,22.83
2022-08-28T03:50:31.447Z,25.55
2022-08-28T03:51:36.232Z,18.92
2022-08-28T03:52:39.472Z,17.95
2022-08-28T03:53:43.458Z,19.80
2022-08-28T03:54:45.487Z,21.30
2022-08-28T03:55:49.010Z,24.10
2022-08-28T03:56:52.208Z,20.35
2022-08-28T03:57:55.251Z,15.60
2022-08-28T03:59:00.281Z,26.70
2022-08-28T04:00:05.742Z,21.83
2022-08-28T04:01:15.473Z,18.85
2022-08-28T04:02:20.503Z,18.75
2022-08-28T04:03:22.654Z,20.17
2022-08-28T04:04:25.754Z,16.48
2022-08-28T04:05:28.629Z,20.52
2022-08-28T04:06:32.194Z,18.00
2022-08-28T04:07:35.117Z,21.98
2022-08-28T04:08:38.359Z,17.08
2022-08-28T04:09:40.460Z,21.58
2022-08-28T04:10:44.079Z,22.42
2022-08-28T04:11:46.162Z,18.98
2022-08-28T04:12:49.222Z,22.63
2022-08-28T04:13:52.303Z,19.98
2022-08-28T04:14:55.110Z,18.50
2022-08-28T04:15:59.611Z,19.58
2022-08-28T04:17:03.248Z,19.75
2022-08-28T04:18:06.782Z,18.92
2022-08-28T04:19:08.912Z,21.63
2022-08-28T04:20:12.690Z,20.40
2022-08-28T04:21:16.993Z,21.38
2022-08-28T04:22:20.052Z,21.42
2022-08-28T04:23:25.709Z,19.42
2022-08-28T04:24:28.804Z,17.85
2022-08-28T04:25:31.038Z,18.00
2022-08-28T04:26:36.652Z,19.50
2022-08-28T04:27:38.767Z,19.02
2022-08-28T04:28:43.245Z,19.42
2022-08-28T04:29:45.283Z,19.17
2022-08-28T04:30:48.362Z,16.77
2022-08-28T04:31:50.600Z,21.35
2022-08-28T04:32:55.145Z,24.50
2022-08-28T04:33:58.695Z,16.65
2022-08-28T04:35:01.841Z,18.55
2022-08-28T04:36:05.352Z,16.35
2022-08-28T04:37:08.445Z,21.33
2022-08-28T04:38:10.533Z,15.82
2022-08-28T04:39:13.836Z,21.83
2022-08-28T04:40:16.251Z,13.93
2022-08-28T04:41:19.510Z,22.83
2022-08-28T04:42:21.569Z,22.23
2022-08-28T04:43:24.850Z,19.23
2022-08-28T04:44:27.148Z,21.40
2022-08-28T04:45:31.011Z,21.50
2022-08-28T04:46:33.523Z,18.20
2022-08-28T04:47:37.245Z,18.98
2022-08-28T04:48:41.779Z,20.13
2022-08-28T04:49:44.851Z,18.58
2022-08-28T04:50:49.372Z,14.65
2022-08-28T04:51:52.790Z,22.60
2022-08-28T04:52:54.858Z,20.00
2022-08-28T04:53:58.635Z,21.80
2022-08-28T04:55:00.824Z,16.75
2022-08-28T04:56:06.030Z,16.45
2022-08-28T04:57:08.612Z,17.60
2022-08-28T04:58:13.371Z,18.17
2022-08-28T04:59:16.433Z,15.90
2022-08-28T05:00:19.740Z,13.38
2022-08-28T05:01:24.501Z,18.23
2022-08-28T05:02:27.840Z,24.88
2022-08-28T05:03:29.944Z,18.02
2022-08-28T05:04:34.361Z,20.83
2022-08-28T05:05:41.474Z,19.75
2022-08-28T05:06:46.457Z,16.55
2022-08-28T05:07:48.699Z,20.63
2022-08-28T05:08:51.742Z,13.63
2022-08-28T05:09:53.947Z,19.50
2022-08-28T05:10:58.064Z,19.27
2022-08-28T05:12:02.974Z,24.77
2022-08-28T05:13:06.057Z,15.48
2022-08-28T05:14:12.770Z,14.57
2022-08-28T05:15:19.236Z,20.33
2022-08-28T05:16:22.439Z,20.83
2022-08-28T05:17:25.498Z,24.33
2022-08-28T05:18:28.310Z,17.63
2022-08-28T05:19:35.229Z,19.52
2022-08-28T05:20:38.572Z,14.52
2022-08-28T05:21:42.636Z,15.10
2022-08-28T05:22:44.810Z,20.02
2022-08-28T05:23:48.930Z,15.50
2022-08-28T05:24:52.012Z,13.70
2022-08-28T05:25:54.197Z,18.55
2022-08-28T05:26:57.704Z,21.92
2022-08-28T05:27:59.828Z,19.60
2022-08-28T05:29:03.075Z,16.27
2022-08-28T05:30:06.546Z,20.45
2022-08-28T05:31:11.596Z,16.83
2022-08-28T05:32:14.722Z,20.23
2022-08-28T05:33:17.151Z,20.65
2022-08-28T05:34:20.764Z,15.20
2022-08-28T05:35:24.939Z,17.95
2022-08-28T05:36:32.500Z,19.70
2022-08-28T05:37:35.517Z,18.33
2022-08-28T05:38:39.776Z,25.95
2022-08-28T05:39:41.782Z,16.92
2022-08-28T05:40:46.047Z,16.85
2022-08-28T05:41:48.169Z,14.98
2022-08-28T05:42:51.501Z,15.57
2022-08-28T05:43:54.012Z,16.65
2022-08-28T05:44:58.852Z,16.08
2022-08-28T05:46:02.436Z,15.77
2022-08-28T05:47:08.810Z,22.63
2022-08-28T05:48:11.962Z,15.95
2022-08-28T05:49:15.993Z,19.60
2022-08-28T05:50:18.899Z,26.65
2022-08-28T05:51:26.577Z,20.08
2022-08-28T05:52:30.676Z,18.35
2022-08-28T05:53:34.301Z,17.10
2022-08-28T05:54:37.409Z,15.82
2022-08-28T05:55:40.568Z,16.55
2022-08-28T05:56:45.287Z,20.70
2022-08-28T05:57:47.263Z,20.13
2022-08-28T05:58:50.336Z,18.08
2022-08-28T05:59:53.636Z,19.33
2022-08-28T06:00:58.396Z,16.10
2022-08-28T06:02:04.317Z,25.02
2022-08-28T06:03:06.697Z,15.55
2022-08-28T06:04:13.056Z,15.02
2022-08-28T06:05:15.560Z,18.08
2022-08-28T06:06:18.704Z,14.65
2022-08-28T06:07:23.191Z,14.77
2022-08-28T06:08:25.328Z,18.17
2022-08-28T06:09:30.358Z,14.65
2022-08-28T06:10:32.489Z,14.82
2022-08-28T06:11:38.754Z,15.15
2022-08-28T06:12:45.376Z,15.23
2022-08-28T06:13:48.920Z,16.13
2022-08-28T06:14:52.069Z,12.60
2022-08-28T06:15:57.420Z,14.70
2022-08-28T06:17:01.101Z,13.88
2022-08-28T06:18:03.195Z,15.40
2022-08-28T06:19:06.991Z,13.95
2022-08-28T06:20:10.752Z,20.00
2022-08-28T06:21:14.301Z,12.23
2022-08-28T06:22:18.442Z,19.58
2022-08-28T06:23:24.095Z,17.08
2022-08-28T06:24:28.783Z,20.27
2022-08-28T06:25:31.283Z,20.42
2022-08-28T06:26:34.612Z,14.85
2022-08-28T06:27:39.295Z,14.40
2022-08-28T06:28:42.338Z,18.73
2022-08-28T06:29:44.806Z,13.70
2022-08-28T06:31:15.922Z,15.45
2022-08-28T06:32:11.324Z,14.90
2022-08-28T06:33:16.376Z,12.77
2022-08-28T06:34:20.616Z,18.30
2022-08-28T06:35:22.924Z,12.68
2022-08-28T06:36:27.835Z,19.38
2022-08-28T06:37:30.155Z,18.33
2022-08-28T06:38:35.182Z,12.15
2022-08-28T06:39:37.289Z,15.40
2022-08-28T06:40:42.180Z,13.40
2022-08-28T06:41:45.220Z,16.52
2022-08-28T06:42:47.276Z,13.68
2022-08-28T06:43:50.367Z,16.80
2022-08-28T06:44:52.483Z,17.65
2022-08-28T06:45:57.608Z,17.90
2022-08-28T06:47:00.830Z,11.10
2022-08-28T06:48:03.319Z,16.90
2022-08-28T06:49:08.286Z,15.98
2022-08-28T06:50:10.889Z,19.98
2022-08-28T06:51:15.964Z,14.70
2022-08-28T06:52:18.253Z,18.23
2022-08-28T06:53:24.961Z,12.52
2022-08-28T06:54:30.989Z,17.02
2022-08-28T06:55:34.399Z,13.07
2022-08-28T06:56:38.370Z,16.13
2022-08-28T06:57:41.467Z,15.60
2022-08-28T06:58:50.543Z,19.98
2022-08-28T06:59:56.857Z,24.23
2022-08-28T07:01:04.701Z,15.63
2022-08-28T07:02:09.359Z,15.30
2022-08-28T07:03:12.545Z,15.95
2022-08-28T07:04:15.832Z,16.58
2022-08-28T07:05:17.975Z,15.90
2022-08-28T07:06:22.855Z,19.02
2022-08-28T07:07:31.705Z,17.75
2022-08-28T07:08:37.662Z,17.88
2022-08-28T07:09:41.188Z,12.98
2022-08-28T07:10:44.269Z,14.07
2022-08-28T07:11:46.723Z,14.52
2022-08-28T07:12:50.913Z,16.73
2022-08-28T07:13:53.556Z,16.45
2022-08-28T07:14:56.602Z,17.95
2022-08-28T07:15:59.660Z,13.68
2022-08-28T07:17:03.008Z,10.15
2022-08-28T07:18:05.105Z,18.15
2022-08-28T07:19:10.537Z,12.98
2022-08-28T07:20:12.950Z,17.25
2022-08-28T07:21:16.198Z,16.20
2022-08-28T07:22:18.391Z,19.27
2022-08-28T07:23:21.497Z,13.80
2022-08-28T07:24:23.585Z,16.48
2022-08-28T07:25:28.111Z,13.23
2022-08-28T07:26:31.205Z,18.38
2022-08-28T07:27:36.079Z,16.83
2022-08-28T07:28:39.608Z,16.27
2022-08-28T07:29:41.671Z,16.42
2022-08-28T07:30:44.908Z,17.48
2022-08-28T07:31:51.540Z,15.18
2022-08-28T07:32:53.580Z,12.65
2022-08-28T07:33:57.198Z,12.82
2022-08-28T07:34:59.828Z,15.65
2022-08-28T07:36:07.070Z,15.82
2022-08-28T07:37:15.100Z,14.35
2022-08-28T07:38:17.566Z,15.43
2022-08-28T07:39:20.904Z,13.77
2022-08-28T07:40:23.117Z,14.63
2022-08-28T07:41:30.085Z,14.00
2022-08-28T07:42:50.861Z,15.55
2022-08-28T07:44:11.441Z,17.73
2022-08-28T07:45:13.522Z,13.95
2022-08-28T07:46:16.553Z,13.95
2022-08-28T07:47:20.271Z,17.48
2022-08-28T07:48:22.738Z,14.13
2022-08-28T07:49:26.722Z,13.00
2022-08-28T07:50:28.840Z,11.40
2022-08-28T07:51:32.098Z,10.57
2022-08-28T07:52:34.177Z,17.90
2022-08-28T07:53:37.506Z,13.45
2022-08-28T07:54:40.553Z,13.27
2022-08-28T07:55:43.690Z,12.23
2022-08-28T07:56:47.519Z,14.98
2022-08-28T07:57:50.595Z,15.60
2022-08-28T07:58:56.238Z,11.02
2022-08-28T07:59:59.441Z,15.80
2022-08-28T08:01:01.528Z,13.20
2022-08-28T08:02:05.357Z,12.95
2022-08-28T08:03:07.779Z,19.20
2022-08-28T08:04:13.480Z,16.33
2022-08-28T08:05:16.687Z,11.50
2022-08-28T08:06:19.043Z,14.00
2022-08-28T08:07:22.205Z,12.68
2022-08-28T08:08:25.107Z,11.93
2022-08-28T08:09:28.541Z,18.10
2022-08-28T08:10:34.297Z,15.90
2022-08-28T08:11:37.929Z,12.80
2022-08-28T08:12:42.725Z,17.08
2022-08-28T08:13:47.777Z,8.68
2022-08-28T08:14:53.126Z,13.10
2022-08-28T08:15:56.415Z,12.63
2022-08-28T08:17:02.140Z,12.48
2022-08-28T08:18:05.571Z,15.32
2022-08-28T08:19:10.167Z,13.52
2022-08-28T08:20:13.717Z,12.05
2022-08-28T08:21:19.590Z,17.65
2022-08-28T08:22:23.143Z,16.45
2022-08-28T08:23:25.972Z,14.93
2022-08-28T08:24:30.475Z,16.10
2022-08-28T08:25:33.619Z,19.45
2022-08-28T08:26:37.921Z,10.35
2022-08-28T08:27:43.126Z,13.30
2022-08-28T08:28:47.541Z,11.55
2022-08-28T08:29:51.005Z,13.20
2022-08-28T08:31:04.712Z,12.70
2022-08-28T08:32:09.654Z,10.75
2022-08-28T08:33:13.087Z,15.45
2022-08-28T08:34:16.656Z,15.27
2022-08-28T08:35:19.823Z,13.88
2022-08-28T08:36:24.432Z,26.05
2022-08-28T08:37:27.414Z,17.45
2022-08-28T08:38:30.575Z,13.15
2022-08-28T08:39:34.200Z,12.88
2022-08-28T08:40:36.297Z,10.85
2022-08-28T08:41:47.858Z,12.35
2022-08-28T08:42:57.154Z,11.82
2022-08-28T08:44:03.835Z,12.48
2022-08-28T08:45:13.686Z,9.57
2022-08-28T08:46:15.818Z,12.10
2022-08-28T08:47:23.479Z,11.15
2022-08-28T08:48:29.271Z,13.77
2022-08-28T08:49:36.031Z,10.23
2022-08-28T08:50:39.007Z,14.50
2022-08-28T08:51:46.736Z,13.07
2022-08-28T08:53:00.977Z,12.32
2022-08-28T08:54:06.005Z,14.57
2022-08-28T08:55:21.994Z,11.45
2022-08-28T08:56:25.162Z,10.95
2022-08-28T08:57:38.992Z,10.45
2022-08-28T08:58:48.812Z,11.68
2022-08-28T08:59:51.449Z,16.67
2022-08-28T09:01:01.148Z,12.45
2022-08-28T09:02:10.711Z,13.50
2022-08-28T09:03:19.445Z,13.98
2022-08-28T09:04:34.304Z,17.50
2022-08-28T09:05:45.188Z,12.35
2022-08-28T09:06:50.969Z,9.65
2022-08-28T09:07:57.741Z,9.93
2022-08-28T09:09:07.059Z,18.55
2022-08-28T09:10:12.328Z,13.63
2022-08-28T09:11:31.629Z,10.35
2022-08-28T09:12:50.152Z,14.00
2022-08-28T09:14:02.938Z,12.13
2022-08-28T09:15:13.061Z,12.77
2022-08-28T09:16:22.151Z,11.88
2022-08-28T09:17:31.517Z,10.52
2022-08-28T09:18:36.087Z,16.65
2022-08-28T09:19:40.512Z,12.82
2022-08-28T09:20:44.136Z,12.98
2022-08-28T09:21:48.153Z,11.25
2022-08-28T09:22:51.828Z,14.93
2022-08-28T09:23:54.242Z,14.85
2022-08-28T09:24:57.446Z,16.75
2022-08-28T09:26:02.097Z,13.05
2022-08-28T09:27:12.307Z,12.55
2022-08-28T09:28:20.482Z,15.13
2022-08-28T09:29:32.529Z,13.32
2022-08-28T09:30:36.397Z,11.30
2022-08-28T09:31:42.269Z,14.48
2022-08-28T09:32:57.999Z,9.55
2022-08-28T09:34:23.903Z,8.60
2022-08-28T09:35:29.563Z,14.60
2022-08-28T09:36:33.687Z,16.92
2022-08-28T09:37:38.025Z,12.88
2022-08-28T09:38:40.016Z,17.35
2022-08-28T09:39:46.668Z,13.18
2022-08-28T09:41:25.034Z,13.38
2022-08-28T09:42:59.945Z,11.90
2022-08-28T09:44:02.104Z,12.40
2022-08-28T09:45:18.281Z,13.25
2022-08-28T09:46:24.108Z,12.15
2022-08-28T09:47:48.692Z,14.07
2022-08-28T09:48:52.504Z,10.15
2022-08-28T09:49:55.555Z,11.98
2022-08-28T09:51:03.197Z,10.93
2022-08-28T09:52:25.142Z,10.38
2022-08-28T09:53:29.157Z,14.05
2022-08-28T09:54:35.498Z,10.52
2022-08-28T09:55:44.811Z,14.77
2022-08-28T09:56:48.579Z,13.75
2022-08-28T09:57:50.910Z,10.90
2022-08-28T09:58:59.471Z,15.02
2022-08-28T10:00:02.142Z,11.77
2022-08-28T10:01:35.749Z,13.38
2022-08-28T10:02:46.007Z,9.60
2022-08-28T10:03:54.364Z,11.25
2022-08-28T10:05:03.887Z,15.88
2022-08-28T10:06:12.390Z,13.43
2022-08-28T10:07:21.926Z,10.82
2022-08-28T10:08:37.836Z,27.05
2022-08-28T10:09:47.967Z,10.30
2022-08-28T10:10:56.007Z,11.20
2022-08-28T10:12:06.610Z,9.90
2022-08-28T10:14:29.613Z,10.18
2022-08-28T10:15:47.453Z,16.45
2022-08-28T10:17:00.464Z,14.63
2022-08-28T10:18:18.133Z,9.98
2022-08-28T10:19:40.983Z,11.88
2022-08-28T10:20:51.714Z,17.95
2022-08-28T10:22:04.974Z,11.15
2022-08-28T10:23:17.650Z,14.73
2022-08-28T10:24:35.655Z,12.52
2022-08-28T10:25:49.608Z,13.40
2022-08-28T10:27:00.638Z,11.68
2022-08-28T10:28:25.748Z,11.68
2022-08-28T10:29:40.003Z,12.73
2022-08-28T10:30:57.316Z,15.13
2022-08-28T10:32:15.861Z,15.95
2022-08-28T10:33:34.422Z,13.93
2022-08-28T10:34:53.529Z,16.58
2022-08-28T10:36:02.671Z,15.18
2022-08-28T10:37:14.574Z,15.35
2022-08-28T10:38:21.554Z,13.95
2022-08-28T10:39:35.387Z,15.45
2022-08-28T10:40:42.031Z,15.07
2022-08-28T10:41:47.310Z,14.65
2022-08-28T10:42:56.820Z,17.77
2022-08-28T10:44:04.876Z,13.25
2022-08-28T10:45:11.863Z,12.98
2022-08-28T10:46:17.739Z,16.30
2022-08-28T10:47:24.770Z,9.48
2022-08-28T10:48:33.766Z,18.50
2022-08-28T10:49:40.156Z,16.75
2022-08-28T10:50:47.028Z,10.05
2022-08-28T10:51:52.258Z,15.85
2022-08-28T10:53:01.010Z,21.50
2022-08-28T10:54:09.094Z,16.50
2022-08-28T10:55:16.948Z,13.43
2022-08-28T10:56:23.340Z,21.35
2022-08-28T10:57:36.089Z,13.18
2022-08-28T10:58:42.521Z,16.80
2022-08-28T10:59:51.553Z,14.48
2022-08-28T11:00:58.054Z,15.73
2022-08-28T11:02:02.171Z,17.17
2022-08-28T11:03:27.108Z,16.40
2022-08-28T11:04:33.877Z,10.38
2022-08-28T11:05:41.413Z,12.23
2022-08-28T11:06:48.954Z,12.95
2022-08-28T11:07:55.462Z,11.68
2022-08-28T11:10:59.038Z,11.70
2022-08-28T11:12:03.930Z,11.60
2022-08-28T11:13:09.579Z,17.52
2022-08-28T11:14:24.540Z,14.35
2022-08-28T11:15:53.507Z,13.80
2022-08-28T11:16:58.790Z,9.38
2022-08-28T11:18:41.533Z,9.55
2022-08-28T11:20:01.689Z,11.77
2022-08-28T11:21:09.912Z,10.18
2022-08-28T11:22:17.782Z,12.80
2022-08-28T11:23:24.277Z,12.07
2022-08-28T11:24:47.081Z,10.82
2022-08-28T11:25:54.722Z,8.75
2022-08-28T11:27:07.447Z,10.32
2022-08-28T11:28:16.250Z,10.95
2022-08-28T11:29:52.713Z,12.75
2022-08-28T11:31:30.838Z,9.77
2022-08-28T11:32:43.578Z,11.23
2022-08-28T11:33:52.977Z,11.30
2022-08-28T11:34:59.983Z,13.55
2022-08-28T11:36:03.975Z,9.88
2022-08-28T11:37:06.988Z,11.43
2022-08-28T11:38:09.322Z,15.23
2022-08-28T11:39:22.876Z,9.13
2022-08-28T11:40:56.527Z,16.85
2022-08-28T11:42:35.070Z,15.25
2022-08-28T11:43:40.405Z,8.98
2022-08-28T11:44:45.026Z,11.10
2022-08-28T11:46:13.374Z,14.32
2022-08-28T11:47:44.891Z,11.35
2022-08-28T11:48:51.239Z,15.05
2022-08-28T11:49:54.670Z,11.02
2022-08-28T11:51:00.419Z,18.38
2022-08-28T11:52:13.190Z,13.20
2022-08-28T11:53:43.049Z,13.52
2022-08-28T11:54:51.693Z,10.40
2022-08-28T11:56:37.169Z,9.40
2022-08-28T11:57:55.726Z,11.43
2022-08-28T11:59:08.089Z,14.25
2022-08-28T12:00:23.671Z,9.88
2022-08-28T12:01:31.972Z,12.75
2022-08-28T12:03:02.936Z,12.73
2022-08-28T12:04:09.187Z,12.10
2022-08-28T12:05:33.636Z,11.05
2022-08-28T12:07:17.367Z,11.82
2022-08-28T12:09:05.977Z,16.95
2022-08-28T12:10:57.021Z,12.45
2022-08-28T12:13:05.565Z,14.60
2022-08-28T12:14:08.414Z,12.38
2022-08-28T12:15:12.546Z,9.63
2022-08-28T12:16:15.794Z,10.43
2022-08-28T12:17:31.261Z,11.05
2022-08-28T12:19:04.082Z,11.55
2022-08-28T12:20:11.517Z,13.52
2022-08-28T12:21:17.471Z,10.05
2022-08-28T12:22:22.760Z,10.23
2022-08-28T12:23:34.694Z,9.23
2022-08-28T12:24:45.579Z,12.75
2022-08-28T12:25:47.702Z,12.80
2022-08-28T12:26:56.228Z,11.73
2022-08-28T12:28:07.996Z,15.65
2022-08-28T12:29:29.360Z,12.65
2022-08-28T12:30:40.839Z,13.55
2022-08-28T12:32:22.035Z,13.70
2022-08-28T12:33:31.942Z,9.75
2022-08-28T12:34:43.631Z,12.85
2022-08-28T12:35:48.065Z,10.73
2022-08-28T12:36:56.601Z,15.93
2022-08-28T12:38:04.486Z,12.48
2022-08-28T12:39:06.755Z,12.07
2022-08-28T12:40:16.376Z,11.32
2022-08-28T12:41:20.989Z,13.67
2022-08-28T12:42:29.688Z,9.70
2022-08-28T12:43:43.274Z,11.82
2022-08-28T12:44:49.161Z,13.30
2022-08-28T12:45:55.572Z,12.18
2022-08-28T12:46:59.002Z,16.25
2022-08-28T12:48:14.083Z,11.25
2022-08-28T12:49:35.914Z,13.88
2022-08-28T12:50:39.890Z,14.93
2022-08-28T12:51:44.407Z,11.75
2022-08-28T12:52:50.185Z,16.70
2022-08-28T12:53:55.553Z,14.18
2022-08-28T12:54:58.809Z,12.77
2022-08-28T12:56:02.152Z,14.70
2022-08-28T12:57:06.564Z,14.90
2022-08-28T12:58:14.869Z,11.55
2022-08-28T12:59:27.104Z,12.48
2022-08-28T13:00:35.727Z,16.02
2022-08-28T13:01:40.046Z,10.77
2022-08-28T13:02:46.414Z,11.10
2022-08-28T13:03:55.761Z,14.90
2022-08-28T13:05:00.145Z,11.80
2022-08-28T13:06:06.536Z,13.25
2022-08-28T13:07:14.987Z,11.15
2022-08-28T13:08:22.442Z,12.00
2022-08-28T13:09:28.655Z,10.13
2022-08-28T13:10:34.820Z,13.75
2022-08-28T13:11:40.160Z,12.45
2022-08-28T13:12:56.096Z,12.05
2022-08-28T13:14:00.323Z,11.52
2022-08-28T13:15:02.638Z,14.18
2022-08-28T13:16:07.994Z,9.25
2022-08-28T13:17:11.793Z,14.82
2022-08-28T13:18:43.304Z,11.73
2022-08-28T13:19:46.299Z,13.00
2022-08-28T13:20:48.340Z,10.75
2022-08-28T13:21:58.812Z,12.85
2022-08-28T13:23:03.176Z,13.27
2022-08-28T13:24:26.281Z,10.23
2022-08-28T13:25:33.238Z,17.63
2022-08-28T13:26:37.665Z,13.52
2022-08-28T13:27:40.765Z,8.25
2022-08-28T13:28:43.815Z,10.07
2022-08-28T13:30:00.958Z,13.55
2022-08-28T13:31:04.932Z,16.58
2022-08-28T13:32:10.362Z,10.65
2022-08-28T13:33:21.902Z,11.52
2022-08-28T13:34:25.927Z,13.13
2022-08-28T13:35:38.955Z,14.65
2022-08-28T13:36:46.823Z,15.63
2022-08-28T13:37:51.692Z,11.30
2022-08-28T13:38:55.174Z,12.98
2022-08-28T13:39:58.243Z,13.30
2022-08-28T13:41:04.653Z,11.15
2022-08-28T13:42:10.468Z,15.35
2022-08-28T13:43:14.183Z,10.98
2022-08-28T13:44:29.549Z,10.48
2022-08-28T13:45:36.261Z,12.02
2022-08-28T13:46:46.374Z,8.82
2022-08-28T13:47:49.627Z,8.10
2022-08-28T13:48:51.655Z,10.55
2022-08-28T13:49:54.722Z,11.10
2022-08-28T13:50:59.442Z,11.27
2022-08-28T13:52:04.711Z,10.35
2022-08-28T13:53:07.085Z,10.60
2022-08-28T13:54:11.433Z,10.95
2022-08-28T13:55:15.086Z,11.25
2022-08-28T13:56:18.480Z,11.32
2022-08-28T13:57:24.456Z,12.27
2022-08-28T13:58:28.244Z,9.52
2022-08-28T13:59:30.910Z,11.02
2022-08-28T14:00:37.108Z,9.13
2022-08-28T14:01:57.069Z,15.50
2022-08-28T14:03:17.715Z,12.93
2022-08-28T14:04:20.824Z,9.93
2022-08-28T14:05:24.274Z,10.57
2022-08-28T14:06:31.777Z,12.13
2022-08-28T14:07:34.507Z,9.10
2022-08-28T14:08:37.609Z,8.40
2022-08-28T14:09:41.019Z,10.77
2022-08-28T14:10:44.763Z,11.63
2022-08-28T14:11:48.233Z,9.95
2022-08-28T14:12:51.286Z,8.32
2022-08-28T14:13:55.373Z,11.85
2022-08-28T14:14:59.032Z,12.13
2022-08-28T14:16:04.729Z,14.10
2022-08-28T14:17:08.949Z,13.60
2022-08-28T14:18:10.951Z,10.68
2022-08-28T14:19:14.266Z,7.35
2022-08-28T14:20:16.289Z,10.18